createdAt,value
2022-10-23T00:01:13.237Z,4.85
2022-10-23T00:03:39.799Z,4.93
2022-10-23T00:06:06.377Z,4.70
2022-10-23T00:08:33.464Z,4.88
2022-10-23T00:10:59.961Z,5.27
2022-10-23T00:13:26.486Z,5.20
2022-10-23T00:18:24.372Z,5.00
2022-10-23T00:20:50.850Z,4.68
2022-10-23T00:23:17.986Z,4.53
2022-10-23T00:25:44.472Z,4.57
2022-10-23T00:28:11.010Z,5.30
2022-10-23T00:30:37.519Z,4.75
2022-10-23T00:33:04.086Z,5.10
2022-10-23T00:35:30.633Z,5.35
2022-10-23T00:37:57.124Z,6.22
2022-10-23T00:40:23.681Z,5.70
2022-10-23T00:42:50.229Z,6.78
2022-10-23T00:45:21.661Z,7.55
2022-10-23T00:47:48.437Z,8.02
2022-10-23T00:50:15.397Z,9.32
2022-10-23T00:52:45.134Z,9.45
2022-10-23T00:55:12.388Z,9.40
2022-10-23T00:57:42.858Z,10.67
2022-10-23T01:00:12.151Z,10.02
2022-10-23T01:02:38.703Z,9.68
2022-10-23T01:05:05.484Z,9.68
2022-10-23T01:07:38.577Z,9.43
2022-10-23T01:10:08.635Z,9.38
2022-10-23T01:12:40.450Z,8.77
2022-10-23T01:15:07.698Z,8.95
2022-10-23T01:17:51.973Z,8.57
2022-10-23T01:20:18.521Z,7.28
2022-10-23T01:22:55.234Z,8.00
2022-10-23T01:25:21.819Z,7.65
2022-10-23T01:27:51.256Z,7.28
2022-10-23T01:30:18.056Z,8.07
2022-10-23T01:32:53.984Z,7.03
2022-10-23T01:35:30.738Z,6.85
2022-10-23T01:38:06.576Z,6.60
2022-10-23T01:40:35.055Z,6.38
2022-10-23T01:43:04.556Z,6.78
2022-10-23T01:45:42.496Z,5.18
2022-10-23T01:48:15.812Z,5.18
2022-10-23T01:50:44.226Z,5.00
2022-10-23T01:53:10.850Z,5.57
2022-10-23T01:55:39.136Z,4.30
2022-10-23T01:58:10.401Z,5.10
2022-10-23T02:00:41.406Z,5.07
2022-10-23T02:03:09.464Z,4.07
2022-10-23T02:05:39.256Z,4.88
2022-10-23T02:08:06.440Z,5.25
2022-10-23T02:10:39.133Z,5.45
2022-10-23T02:13:11.543Z,5.30
2022-10-23T02:15:42.450Z,5.75
2022-10-23T02:18:27.868Z,5.40
2022-10-23T02:20:56.788Z,5.00
2022-10-23T02:23:25.207Z,5.07
2022-10-23T02:25:54.380Z,5.07
2022-10-23T02:28:24.108Z,5.05
2022-10-23T02:30:56.740Z,5.28
2022-10-23T02:33:23.693Z,5.30
2022-10-23T02:35:50.301Z,5.78
2022-10-23T02:38:33.091Z,6.00
2022-10-23T02:41:05.855Z,5.70
2022-10-23T02:43:54.697Z,6.78
2022-10-23T02:46:25.310Z,6.22
2022-10-23T02:49:05.920Z,5.40
2022-10-23T02:51:36.667Z,5.72
2022-10-23T02:54:19.927Z,5.25
2022-10-23T02:56:47.432Z,5.70
2022-10-23T02:59:22.436Z,5.50
2022-10-23T03:01:51.800Z,4.78
2022-10-23T03:04:19.316Z,5.25
2022-10-23T03:06:47.480Z,5.05
2022-10-23T03:09:17.328Z,5.10
2022-10-23T03:11:43.930Z,4.78
2022-10-23T03:14:11.700Z,5.28
2022-10-23T03:16:38.301Z,4.95
2022-10-23T03:19:04.847Z,5.13
2022-10-23T03:21:31.446Z,4.90
2022-10-23T03:23:57.999Z,4.70
2022-10-23T03:26:31.678Z,4.47
2022-10-23T03:28:58.236Z,4.50
2022-10-23T03:31:24.760Z,4.70
2022-10-23T03:33:56.235Z,4.65
2022-10-23T03:36:22.869Z,4.20
2022-10-23T03:38:49.955Z,4.78
2022-10-23T03:41:16.472Z,4.68
2022-10-23T03:43:43.630Z,4.60
2022-10-23T03:46:12.878Z,5.00
2022-10-23T03:48:39.520Z,5.00
2022-10-23T03:51:06.435Z,5.03
2022-10-23T03:53:32.922Z,4.82
2022-10-23T03:56:01.961Z,5.05
2022-10-23T03:58:28.577Z,5.13
2022-10-23T04:00:55.421Z,4.65
2022-10-23T04:03:22.057Z,5.13
2022-10-23T04:05:52.084Z,5.03
2022-10-23T04:08:21.152Z,5.15
2022-10-23T04:10:50.331Z,4.80
2022-10-23T04:13:20.443Z,4.80
2022-10-23T04:15:51.076Z,4.97
2022-10-23T04:18:18.039Z,4.88
2022-10-23T04:20:47.220Z,4.73
2022-10-23T04:23:13.764Z,4.25
2022-10-23T04:25:41.530Z,3.78
2022-10-23T04:28:08.506Z,3.83
2022-10-23T04:30:38.286Z,4.40
2022-10-23T04:33:05.632Z,4.10
2022-10-23T04:35:32.145Z,4.43
2022-10-23T04:37:59.486Z,4.03
2022-10-23T04:40:26.005Z,4.55
2022-10-23T04:42:54.370Z,3.88
2022-10-23T04:45:21.473Z,4.07
2022-10-23T04:47:47.997Z,4.35
2022-10-23T04:50:15.095Z,4.00
2022-10-23T04:53:00.237Z,4.28
2022-10-23T04:55:51.884Z,4.03
2022-10-23T04:58:25.618Z,4.07
2022-10-23T05:00:52.469Z,3.90
2022-10-23T05:03:25.431Z,3.80
2022-10-23T05:05:54.395Z,4.10
2022-10-23T05:08:39.016Z,3.47
2022-10-23T05:11:21.034Z,3.92
2022-10-23T05:13:49.667Z,3.63
2022-10-23T05:16:26.397Z,3.80
2022-10-23T05:18:53.028Z,3.47
2022-10-23T05:21:22.107Z,3.45
2022-10-23T05:23:50.146Z,3.70
2022-10-23T05:26:16.916Z,3.53
2022-10-23T05:28:45.961Z,3.28
2022-10-23T05:31:15.458Z,3.42
2022-10-23T05:33:48.066Z,4.30
2022-10-23T05:36:14.994Z,3.97
2022-10-23T05:38:43.384Z,3.67
2022-10-23T05:41:14.019Z,3.30
2022-10-23T05:43:40.710Z,3.55
2022-10-23T05:46:29.761Z,3.65
2022-10-23T05:49:13.516Z,3.17
2022-10-23T05:51:55.377Z,3.10
2022-10-23T05:54:53.891Z,3.13
2022-10-23T05:57:43.552Z,3.20
2022-10-23T06:00:12.438Z,4.40
2022-10-23T06:02:41.758Z,4.53
2022-10-23T06:05:27.290Z,6.38
2022-10-23T06:08:14.061Z,6.13
2022-10-23T06:10:41.200Z,4.90
2022-10-23T06:13:09.974Z,13.07
2022-10-23T06:15:37.031Z,6.85
2022-10-23T06:18:08.787Z,5.78
2022-10-23T06:20:41.014Z,4.00
2022-10-23T06:23:18.786Z,3.92
2022-10-23T06:26:18.084Z,3.60
2022-10-23T06:29:07.436Z,3.75
2022-10-23T06:31:34.170Z,4.22
2022-10-23T06:34:02.212Z,3.80
2022-10-23T06:36:30.434Z,4.43
2022-10-23T06:39:17.767Z,3.75
2022-10-23T06:42:01.662Z,9.15
2022-10-23T06:44:54.147Z,7.80
2022-10-23T06:47:40.959Z,6.77
2022-10-23T06:50:16.316Z,5.32
2022-10-23T06:52:47.284Z,3.63
2022-10-23T06:55:17.055Z,3.33
2022-10-23T06:57:43.860Z,3.50
2022-10-23T07:00:11.302Z,3.33
2022-10-23T07:02:45.825Z,2.97
2022-10-23T07:05:13.945Z,3.10
2022-10-23T07:07:42.456Z,2.97
2022-10-23T07:10:10.405Z,3.58
2022-10-23T07:12:51.841Z,2.90
2022-10-23T07:15:39.368Z,3.28
2022-10-23T07:18:14.437Z,3.35
2022-10-23T07:21:10.704Z,3.58
2022-10-23T07:23:39.136Z,8.30
2022-10-23T07:26:08.522Z,5.28
2022-10-23T07:28:35.420Z,3.38
2022-10-23T07:31:02.412Z,3.00
2022-10-23T07:33:49.129Z,2.72
2022-10-23T07:36:18.878Z,2.90
2022-10-23T07:38:45.598Z,3.22
2022-10-23T07:41:12.528Z,3.00
2022-10-23T07:43:39.316Z,2.67
2022-10-23T07:46:08.294Z,3.13
2022-10-23T07:48:38.595Z,2.80
2022-10-23T07:51:08.526Z,2.70
2022-10-23T07:53:39.758Z,3.10
2022-10-23T07:56:22.308Z,3.25
2022-10-23T07:59:07.295Z,5.72
2022-10-23T08:01:38.168Z,4.20
2022-10-23T08:04:05.233Z,7.28
2022-10-23T08:06:33.422Z,2.53
2022-10-23T08:09:02.321Z,2.78
2022-10-23T08:11:35.509Z,2.75
2022-10-23T08:14:05.190Z,2.88
2022-10-23T08:16:33.258Z,2.65
2022-10-23T08:19:06.376Z,2.95
2022-10-23T08:21:34.716Z,3.40
2022-10-23T08:24:01.538Z,2.97
2022-10-23T08:28:59.499Z,2.72
2022-10-23T08:34:11.700Z,3.28
2022-10-23T08:36:39.385Z,3.35
2022-10-23T08:39:06.742Z,3.13
2022-10-23T08:41:40.179Z,3.28
2022-10-23T08:44:36.538Z,3.60
2022-10-23T08:47:18.800Z,3.10
2022-10-23T08:50:06.820Z,3.15
2022-10-23T08:52:48.803Z,3.30
2022-10-23T08:55:29.521Z,3.20
2022-10-23T08:58:02.113Z,3.25
2022-10-23T09:00:29.013Z,3.85
2022-10-23T09:02:55.614Z,4.03
2022-10-23T09:05:27.772Z,3.95
2022-10-23T09:07:57.149Z,4.20
2022-10-23T09:10:32.516Z,4.28
2022-10-23T09:13:02.879Z,4.00
2022-10-23T09:15:35.005Z,3.78
2022-10-23T09:18:06.654Z,3.40
2022-10-23T09:20:37.105Z,3.42
2022-10-23T09:23:07.817Z,3.70
2022-10-23T09:25:36.826Z,3.50
2022-10-23T09:28:05.489Z,3.22
2022-10-23T09:30:37.041Z,3.83
2022-10-23T09:33:14.519Z,4.03
2022-10-23T09:35:51.845Z,3.70
2022-10-23T09:38:27.140Z,3.65
2022-10-23T09:40:53.688Z,3.70
2022-10-23T09:43:25.893Z,3.20
2022-10-23T09:46:02.822Z,3.20
2022-10-23T09:48:29.970Z,2.83
2022-10-23T09:51:00.426Z,2.78
2022-10-23T09:53:31.489Z,2.85
2022-10-23T09:56:00.510Z,2.63
2022-10-23T09:58:32.559Z,3.10
2022-10-23T10:00:59.176Z,2.80
2022-10-23T10:03:48.436Z,2.72
2022-10-23T10:06:21.921Z,2.70
2022-10-23T10:08:52.065Z,2.50
2022-10-23T10:11:33.713Z,2.80
2022-10-23T10:14:06.937Z,2.60
2022-10-23T10:16:52.109Z,3.25
2022-10-23T10:19:34.513Z,3.17
2022-10-23T10:22:01.051Z,3.83
2022-10-23T10:24:35.610Z,10.77
2022-10-23T10:27:10.393Z,3.75
2022-10-23T10:29:39.660Z,4.72
2022-10-23T10:32:24.851Z,3.75
2022-10-23T10:34:53.989Z,4.50
2022-10-23T10:37:20.677Z,3.38
2022-10-23T10:39:53.258Z,3.53
2022-10-23T10:42:31.715Z,3.95
2022-10-23T10:45:01.596Z,7.30
2022-10-23T10:47:40.502Z,15.00
2022-10-23T10:50:11.746Z,3.92
2022-10-23T10:52:49.543Z,3.22
2022-10-23T10:55:22.086Z,3.13
2022-10-23T10:57:51.104Z,2.50
2022-10-23T11:00:21.689Z,8.32
2022-10-23T11:03:02.709Z,2.72
2022-10-23T11:05:29.365Z,2.03
2022-10-23T11:07:59.405Z,1.88
2022-10-23T11:10:26.945Z,1.30
2022-10-23T11:12:53.621Z,1.45
2022-10-23T11:15:23.631Z,1.40
2022-10-23T11:17:53.570Z,1.63
2022-10-23T11:20:39.928Z,1.38
2022-10-23T11:23:26.414Z,1.33
2022-10-23T11:26:08.301Z,1.60
2022-10-23T11:28:53.634Z,1.38
2022-10-23T11:31:29.683Z,1.55
2022-10-23T11:34:05.194Z,1.40
2022-10-23T11:36:50.167Z,8.95
2022-10-23T11:39:19.458Z,1.90
2022-10-23T11:41:54.034Z,1.60
2022-10-23T11:44:28.870Z,1.23
2022-10-23T11:47:02.847Z,1.15
2022-10-23T11:49:29.481Z,1.50
2022-10-23T11:52:05.920Z,1.73
2022-10-23T11:54:32.452Z,1.35
2022-10-23T11:57:10.426Z,1.58
2022-10-23T11:59:49.538Z,1.98
2022-10-23T12:02:37.533Z,1.58
2022-10-23T12:05:06.151Z,1.60
2022-10-23T12:07:40.208Z,1.17
2022-10-23T12:10:27.234Z,1.30
2022-10-23T12:13:01.295Z,1.50
2022-10-23T12:15:28.468Z,1.40
2022-10-23T12:17:55.881Z,1.30
2022-10-23T12:20:36.749Z,1.45
2022-10-23T12:23:32.665Z,4.35
2022-10-23T12:26:04.952Z,1.52
2022-10-23T12:28:40.020Z,1.35
2022-10-23T12:31:47.850Z,1.20
2022-10-23T12:34:14.734Z,1.45
2022-10-23T12:36:41.274Z,1.50
2022-10-23T12:39:27.261Z,1.27
2022-10-23T12:41:54.098Z,1.20
2022-10-23T12:44:21.378Z,1.27
2022-10-23T12:46:50.050Z,1.52
2022-10-23T12:49:18.493Z,1.23
2022-10-23T12:51:45.439Z,1.42
2022-10-23T12:54:15.874Z,1.30
2022-10-23T12:56:44.234Z,1.10
2022-10-23T12:59:14.551Z,1.30
2022-10-23T13:01:43.346Z,1.33
2022-10-23T13:04:22.121Z,1.30
2022-10-23T13:06:49.961Z,1.25
2022-10-23T13:11:57.481Z,1.27
2022-10-23T13:14:30.109Z,1.30
2022-10-23T13:17:00.654Z,1.33
2022-10-23T13:19:27.667Z,1.20
2022-10-23T13:21:54.272Z,1.27
2022-10-23T13:24:21.950Z,1.33
2022-10-23T13:26:49.123Z,1.55
2022-10-23T13:29:21.480Z,1.10
2022-10-23T13:31:48.359Z,1.20
2022-10-23T13:34:17.352Z,1.02
2022-10-23T13:36:54.540Z,1.35
2022-10-23T13:39:25.404Z,1.50
2022-10-23T13:41:52.153Z,1.50
2022-10-23T13:44:20.193Z,1.48
2022-10-23T13:46:48.281Z,1.55
2022-10-23T13:49:15.164Z,1.25
2022-10-23T13:51:47.657Z,1.23
2022-10-23T13:54:24.343Z,1.30
2022-10-23T13:56:51.373Z,1.05
2022-10-23T13:59:18.465Z,1.42
2022-10-23T14:01:45.874Z,1.25
2022-10-23T14:04:12.912Z,1.50
2022-10-23T14:06:39.480Z,1.30
2022-10-23T14:09:06.979Z,1.50
2022-10-23T14:11:33.532Z,1.52
2022-10-23T14:14:00.452Z,1.75
2022-10-23T14:16:27.705Z,1.50
2022-10-23T14:18:54.307Z,1.50
2022-10-23T14:21:21.785Z,1.83
2022-10-23T14:23:48.925Z,2.00
2022-10-23T14:26:16.925Z,1.92
2022-10-23T14:28:43.541Z,2.30
2022-10-23T14:31:11.635Z,2.20
2022-10-23T14:33:38.503Z,1.58
2022-10-23T14:36:05.536Z,1.98
2022-10-23T14:38:32.168Z,1.63
2022-10-23T14:40:58.679Z,1.63
2022-10-23T14:43:25.453Z,1.60
2022-10-23T14:45:52.122Z,1.65
2022-10-23T14:48:18.894Z,1.80
2022-10-23T14:50:47.026Z,1.40
2022-10-23T14:53:14.013Z,5.25
2022-10-23T14:55:40.581Z,2.05
2022-10-23T14:58:07.192Z,1.65
2022-10-23T15:00:33.758Z,1.52
2022-10-23T15:03:00.306Z,1.40
2022-10-23T15:05:26.908Z,1.42
2022-10-23T15:07:54.759Z,1.70
2022-10-23T15:12:48.593Z,1.20
2022-10-23T15:15:15.137Z,1.67
2022-10-23T15:17:42.364Z,1.40
2022-10-23T15:20:09.158Z,2.45
2022-10-23T15:22:35.802Z,10.55
2022-10-23T15:25:02.363Z,1.80
2022-10-23T15:27:28.847Z,2.38
2022-10-23T15:29:55.307Z,1.88
2022-10-23T15:32:21.798Z,2.22
2022-10-23T15:34:49.765Z,1.90
2022-10-23T15:37:16.865Z,2.65
2022-10-23T15:39:43.510Z,2.10
2022-10-23T15:42:10.325Z,1.80
2022-10-23T15:44:37.026Z,1.58
2022-10-23T15:47:03.635Z,1.90
2022-10-23T15:49:30.201Z,2.15
2022-10-23T15:51:57.036Z,2.08
2022-10-23T15:54:24.158Z,2.95
2022-10-23T15:56:52.442Z,2.05
2022-10-23T16:01:45.650Z,2.13
2022-10-23T16:04:12.386Z,1.93
2022-10-23T16:06:38.972Z,1.83
2022-10-23T16:09:05.535Z,2.28
2022-10-23T16:11:34.509Z,2.00
2022-10-23T16:14:01.658Z,2.20
2022-10-23T16:16:28.725Z,2.92
2022-10-23T16:18:55.642Z,2.40
2022-10-23T16:21:23.423Z,1.98
2022-10-23T16:23:50.456Z,2.17
2022-10-23T16:26:17.549Z,2.33
2022-10-23T16:28:47.143Z,2.40
2022-10-23T16:31:20.318Z,2.70
2022-10-23T16:33:48.258Z,2.35
2022-10-23T16:36:14.907Z,2.90
2022-10-23T16:39:01.650Z,2.78
2022-10-23T16:42:04.001Z,6.00
2022-10-23T16:44:50.809Z,2.10
2022-10-23T16:47:18.330Z,2.10
2022-10-23T16:49:44.818Z,2.10
2022-10-23T16:52:11.406Z,9.77
2022-10-23T16:54:38.026Z,3.00
2022-10-23T16:57:04.576Z,3.45
2022-10-23T16:59:31.121Z,2.20
2022-10-23T17:01:57.728Z,1.92
2022-10-23T17:04:24.310Z,1.73
2022-10-23T17:06:50.835Z,2.30
2022-10-23T17:09:19.297Z,3.20
2022-10-23T17:11:45.817Z,2.63
2022-10-23T17:14:13.909Z,2.97
2022-10-23T17:16:50.767Z,3.03
2022-10-23T17:19:44.555Z,3.43
2022-10-23T17:22:10.459Z,2.10
2022-10-23T17:24:37.806Z,3.33
2022-10-23T17:27:04.656Z,2.83
2022-10-23T17:29:31.315Z,2.15
2022-10-23T17:31:57.861Z,1.90
2022-10-23T17:34:24.910Z,1.52
2022-10-23T17:36:52.472Z,14.43
2022-10-23T17:39:20.982Z,1.80
2022-10-23T17:41:47.858Z,1.70
2022-10-23T17:44:14.870Z,2.13
2022-10-23T17:46:41.525Z,2.88
2022-10-23T17:49:08.310Z,1.50
2022-10-23T17:51:35.708Z,1.30
2022-10-23T17:54:03.912Z,1.15
2022-10-23T17:56:31.478Z,1.75
2022-10-23T17:59:02.608Z,1.63
2022-10-23T18:01:29.954Z,1.50
2022-10-23T18:03:59.429Z,1.05
2022-10-23T18:06:29.629Z,1.80
2022-10-23T18:08:56.906Z,1.00
2022-10-23T18:11:25.293Z,1.27
2022-10-23T18:13:52.214Z,2.00
2022-10-23T18:16:18.759Z,2.43
2022-10-23T18:18:48.207Z,1.05
2022-10-23T18:21:16.103Z,1.48
2022-10-23T18:23:43.811Z,3.60
2022-10-23T18:26:18.811Z,0.90
2022-10-23T18:28:46.395Z,1.60
2022-10-23T18:31:13.758Z,1.33
2022-10-23T18:33:40.692Z,1.33
2022-10-23T18:36:19.224Z,1.20
2022-10-23T18:38:45.843Z,1.20
2022-10-23T18:41:12.408Z,0.50
2022-10-23T18:43:43.595Z,0.80
2022-10-23T18:46:11.835Z,0.98
2022-10-23T18:48:38.433Z,1.52
2022-10-23T18:51:05.077Z,1.23
2022-10-23T18:53:31.584Z,0.70
2022-10-23T18:55:58.112Z,0.70
2022-10-23T18:58:24.590Z,1.00
2022-10-23T19:00:51.149Z,1.17
2022-10-23T19:03:18.411Z,1.15
2022-10-23T19:05:45.768Z,0.95
2022-10-23T19:08:12.512Z,0.75
2022-10-23T19:10:39.939Z,0.70
2022-10-23T19:13:06.917Z,3.67
2022-10-23T19:15:34.453Z,0.60
2022-10-23T19:18:01.213Z,0.80
2022-10-23T19:22:59.733Z,0.70
2022-10-23T19:25:29.025Z,1.25
2022-10-23T19:27:56.776Z,1.00
2022-10-23T19:30:24.121Z,0.80
2022-10-23T19:32:50.717Z,1.20
2022-10-23T19:35:18.465Z,1.27
2022-10-23T19:37:46.175Z,1.13
2022-10-23T19:40:13.516Z,1.10
2022-10-23T19:42:41.031Z,1.20
2022-10-23T19:45:08.887Z,1.17
2022-10-23T19:50:01.932Z,1.20
2022-10-23T19:52:28.485Z,1.17
2022-10-23T19:54:55.117Z,1.38
2022-10-23T19:57:22.682Z,1.30
2022-10-23T19:59:50.114Z,1.10
2022-10-23T20:02:17.228Z,1.33
2022-10-23T20:04:44.419Z,0.98
2022-10-23T20:07:11.165Z,1.73
2022-10-23T20:09:38.064Z,1.80
2022-10-23T20:12:04.738Z,1.60
2022-10-23T20:14:31.491Z,1.50
2022-10-23T20:16:58.136Z,1.45
2022-10-23T20:19:24.733Z,3.40
2022-10-23T20:21:51.426Z,1.58
2022-10-23T20:24:18.786Z,1.58
2022-10-23T20:26:46.555Z,1.63
2022-10-23T20:29:13.280Z,2.92
2022-10-23T20:31:39.809Z,2.20
2022-10-23T20:34:06.861Z,7.55
2022-10-23T20:36:40.153Z,10.03
2022-10-23T20:39:10.928Z,16.00
2022-10-23T20:41:37.680Z,11.27
2022-10-23T20:44:05.593Z,5.45
2022-10-23T20:48:58.712Z,2.53
2022-10-23T20:51:25.521Z,2.83
2022-10-23T20:53:54.535Z,2.67
2022-10-23T20:56:23.583Z,2.70
2022-10-23T20:58:50.613Z,2.50
2022-10-23T21:01:17.734Z,2.20
2022-10-23T21:03:48.861Z,2.13
2022-10-23T21:06:16.126Z,3.95
2022-10-23T21:08:42.762Z,3.28
2022-10-23T21:11:13.333Z,3.35
2022-10-23T21:13:39.907Z,3.40
2022-10-23T21:16:16.938Z,4.80
2022-10-23T21:18:46.689Z,5.72
2022-10-23T21:21:19.235Z,3.13
2022-10-23T21:23:46.829Z,3.42
2022-10-23T21:26:13.803Z,3.28
2022-10-23T21:28:47.233Z,3.17
2022-10-23T21:31:23.446Z,2.60
2022-10-23T21:33:49.933Z,2.53
2022-10-23T21:36:17.624Z,13.63
2022-10-23T21:38:45.022Z,6.95
2022-10-23T21:41:13.054Z,2.80
2022-10-23T21:43:39.567Z,2.45
2022-10-23T21:46:16.966Z,2.47
2022-10-23T21:51:29.417Z,2.30
2022-10-23T21:53:56.223Z,2.88
2022-10-23T21:56:25.649Z,2.78
2022-10-23T21:58:52.506Z,2.40
2022-10-23T22:01:19.192Z,2.05
2022-10-23T22:03:45.792Z,2.20
2022-10-23T22:06:22.998Z,2.80
2022-10-23T22:08:50.576Z,2.72
2022-10-23T22:11:17.287Z,2.22
2022-10-23T22:13:44.401Z,2.63
2022-10-23T22:16:11.991Z,1.77
2022-10-23T22:18:38.519Z,1.88
2022-10-23T22:21:06.906Z,2.15
2022-10-23T22:23:33.443Z,2.28
2022-10-23T22:26:04.441Z,2.13
2022-10-23T22:28:30.949Z,3.83
2022-10-23T22:30:57.485Z,4.28
2022-10-23T22:33:23.978Z,2.20
2022-10-23T22:35:50.500Z,2.25
2022-10-23T22:38:17.885Z,2.45
2022-10-23T22:40:46.749Z,2.42
2022-10-23T22:43:13.446Z,2.15
2022-10-23T22:45:41.881Z,2.38
2022-10-23T22:48:08.734Z,2.00
2022-10-23T22:50:35.257Z,1.50
2022-10-23T22:53:01.878Z,2.05
2022-10-23T22:55:28.343Z,1.60
2022-10-23T22:57:54.853Z,2.03
2022-10-23T23:00:21.389Z,1.75
2022-10-23T23:02:48.015Z,1.77
2022-10-23T23:05:14.618Z,1.67
2022-10-23T23:07:41.309Z,2.03
2022-10-23T23:10:08.073Z,1.30
2022-10-23T23:12:37.007Z,1.30
2022-10-23T23:15:03.879Z,1.70
2022-10-23T23:17:30.411Z,1.55
2022-10-23T23:19:56.973Z,1.05
2022-10-23T23:22:23.713Z,1.40
2022-10-23T23:24:50.308Z,1.33
2022-10-23T23:27:17.248Z,1.40
2022-10-23T23:29:43.766Z,1.10
2022-10-23T23:32:10.591Z,1.25
2022-10-23T23:34:37.085Z,1.45
2022-10-23T23:37:03.622Z,0.73
2022-10-23T23:39:30.278Z,1.13
2022-10-23T23:41:56.829Z,1.20
2022-10-23T23:44:23.412Z,1.60
2022-10-23T23:46:49.911Z,1.20
2022-10-23T23:49:16.389Z,0.93
2022-10-23T23:51:43.206Z,1.08
2022-10-23T23:54:10.050Z,1.10
2022-10-23T23:56:36.623Z,1.00
2022-10-23T23:59:03.152Z,1.17
